• Join FlightAware (Why Join?)
  • Login
  • US Flag 
06:08AM EST


 

Airport Tracker/Info


-or-


 

Live Flight TrackerFlight Track Log ✈ UAL848 ✈ 06-Jun-2012 ✈ KIAH - KLAS

Flight Track Log - Related Links

Times and Time Zones

All times are in EDT time to prevent confusion due to time zone crossing. See the UAL848 flight status page for this flight to view local times or setup timezone preferences in your user account.

Time Position Orientation Groundspeed Altitude Reporting Facility
EDT Latitude Longitude Course Direction KTS MPH feet Rate Location/Type
04:13PM 29.9558 -95.3503 257° West 168 193 900  Level Houston Center
04:18PM 29.8856 -95.6928 299° West 317 365 11,300 1,980 Climbing Houston Center
04:19PM 29.9347 -95.7953 301° West 346 398 13,000 1,800 Climbing Houston Center
04:20PM 29.9878 -95.8981 300° West 364 419 15,000 1,800 Climbing Houston Center
04:21PM 30.0408 -96.0058 292° West 378 435 16,700 1,620 Climbing Houston Center
04:22PM 30.0808 -96.1228 280° West 383 441 18,300 1,560 Climbing Houston Center
04:23PM 30.0994 -96.2508 280° West 396 456 19,900 1,440 Climbing Houston Center
04:24PM 30.1200 -96.3836 280° West 408 470 21,200 1,380 Climbing Houston Center
04:25PM 30.1439 -96.5336 279° West 435 501 22,700 1,320 Climbing Houston Center
04:26PM 30.1603 -96.6544 280° West 440 506 23,900 1,200 Climbing Houston Center
04:27PM 30.1822 -96.7947 279° West 446 513 25,100 1,140 Climbing Houston Center
04:28PM 30.2019 -96.9350 280° West 446 513 26,200 1,080 Climbing Houston Center
04:29PM 30.2233 -97.0825 279° West 453 521 27,300 900 Climbing Houston Center
04:30PM 30.2425 -97.2278 281° West 460 529 28,000 660 Climbing Houston Center
04:31PM 30.2706 -97.4000 279° West 477 549 28,700 720 Climbing Houston Center
04:32PM 30.2897 -97.5406 280° West 484 557 29,500 960 Climbing Houston Center
04:33PM 30.3122 -97.6931 279° West 482 555 30,700 1,140 Climbing Houston Center
04:34PM 30.3322 -97.8483 280° West 488 562 31,800 1,200 Climbing Houston Center
04:35PM 30.3528 -97.9889 279° West 470 541 33,200 1,020 Climbing Houston Center
04:36PM 30.3731 -98.1369 282° West 461 531 33,900 360 Climbing Houston Center
04:37PM 30.3958 -98.2658 287° West 461 531 34,000  Climbing Houston Center
04:38PM 30.4328 -98.4078 287° West 461 531 34,000  Level Houston Center
04:39PM 30.4694 -98.5500 289° West 466 536 34,000 240 Level Houston Center
04:40PM 30.5100 -98.6900 288° West 466 536 34,500 660 Climbing Houston Center
04:41PM 30.5486 -98.8300 286° West 466 536 35,400 660 Climbing Houston Center
04:42PM 30.5847 -98.9722 288° West 460 529 35,900 300 Climbing Houston Center
04:43PM 30.6264 -99.1247 288° West 455 524 36,000  Climbing Houston Center
04:44PM 30.6628 -99.2575 287° West 450 518 36,000  Level Houston Center
04:45PM 30.6986 -99.3953 286° West 450 518 36,000  Level Houston Center
04:46PM 30.7308 -99.5258 287° West 450 518 36,000  Level Houston Center
04:47PM 30.7683 -99.6661 288° West 455 524 36,000 -60 Level Houston Center
04:48PM 30.8058 -99.8044 287° West 450 518 35,900 -60 Descending Houston Center
04:49PM 30.8414 -99.9425 286° West 450 518 35,900  Level Houston Center
04:50PM 30.8764 -100.0831 286° West 450 518 35,900  Level Houston Center
04:51PM 30.9114 -100.2236 287° West 450 518 35,900  Level Houston Center
04:52PM 30.9481 -100.3647 286° West 450 518 36,000  Climbing Houston Center
04:53PM 30.9825 -100.5056 286° West 450 518 36,000  Level Houston Center
04:54PM 31.0186 -100.6539 286° West 457 526 36,000  Level Houston Center
04:56PM 31.0886 -100.9403 285° West 468 539 36,000  Level Fort Worth Center
04:57PM 31.1222 -101.0822 288° West 468 539 36,000  Level Fort Worth Center
04:58PM 31.1600 -101.2194 293° West 461 531 36,000  Level Fort Worth Center
04:59PM 31.2100 -101.3575 307° West 461 531 36,000 -60 Level Fort Worth Center
05:00PM 31.2856 -101.4750 310° West 447 514 35,900 -60 Descending Fort Worth Center
05:01PM 31.3694 -101.5906 312° West 455 524 35,900  Level Fort Worth Center
05:02PM 31.4533 -101.7014 308° West 460 529 35,900  Level Fort Worth Center
05:03PM 31.5328 -101.8222 307° West 460 529 35,900  Level Fort Worth Center
05:04PM 31.6356 -101.9808 308° West 460 529 36,000  Climbing Fort Worth Center
05:05PM 31.7306 -102.1222 309° West 460 529 36,000  Level Fort Worth Center
05:06PM 31.8136 -102.2414 309° West 460 529 36,000  Level Fort Worth Center
05:07PM 31.8947 -102.3583 309° West 460 529 36,000  Level Fort Worth Center
05:08PM 31.9678 -102.4650 308° West 467 537 36,000  Level Fort Worth Center
05:09PM 32.0483 -102.5869 309° West 467 537 36,000  Level Fort Worth Center
05:10PM 32.1308 -102.7069 308° West 467 537 36,000  Level Fort Worth Center
05:11PM 32.2114 -102.8269 309° West 467 537 36,000  Level Fort Worth Center
05:12PM 32.3017 -102.9603 310° West 467 537 36,000  Level Fort Worth Center
05:13PM 32.3858 -103.0811 308° West 473 544 36,000  Level Fort Worth Center
05:14PM 32.4678 -103.2067 308° West 478 550 36,000  Level Fort Worth Center
05:15PM 32.5478 -103.3278 309° West 478 550 36,000  Level Fort Worth Center
05:16PM 32.6317 -103.4492 308° West 478 550 36,000  Level Fort Worth Center
05:19PM 32.8064 -103.7158 308° West 466 536 36,000  Level Albuquerque Center
05:20PM 32.8958 -103.8531 309° West 472 543 36,000  Level Albuquerque Center
05:21PM 32.9700 -103.9636 308° West 477 549 36,000  Level Albuquerque Center
05:22PM 33.0592 -104.0989 309° West 477 549 36,000  Level Albuquerque Center
05:23PM 33.1331 -104.2075 309° West 470 541 36,000  Level Albuquerque Center
05:24PM 33.2242 -104.3408 309° West 470 541 36,000  Level Albuquerque Center
05:25PM 33.2892 -104.4353 309° West 469 540 36,000  Level Albuquerque Center
05:26PM 33.3928 -104.5908 307° West 480 552 36,000  Level Albuquerque Center
05:27PM 33.4667 -104.7103 310° West 468 539 36,000  Level Albuquerque Center
05:28PM 33.5461 -104.8250 317° Northwest 456 525 36,000  Level Albuquerque Center
05:29PM 33.6381 -104.9294 319° Northwest 456 525 36,000  Level Albuquerque Center
05:30PM 33.7297 -105.0267 319° Northwest 444 511 36,000  Level Albuquerque Center
05:31PM 33.8233 -105.1239 320° Northwest 444 511 36,000  Level Albuquerque Center
05:32PM 33.9192 -105.2214 321° Northwest 444 511 36,000  Level Albuquerque Center
05:33PM 34.0083 -105.3094 320° Northwest 432 497 36,000  Level Albuquerque Center
05:34PM 34.0931 -105.3950 318° Northwest 432 497 36,000  Level Albuquerque Center
05:35PM 34.1867 -105.4958 320° Northwest 437 503 36,000  Level Albuquerque Center
05:36PM 34.2819 -105.5942 316° Northwest 442 509 36,000  Level Albuquerque Center
05:37PM 34.3711 -105.6981 308° West 447 514 36,000  Level Albuquerque Center
05:38PM 34.4456 -105.8147 306° West 447 514 36,100  Climbing Albuquerque Center
05:39PM 34.5181 -105.9344 306° West 447 514 36,000 -60 Descending Albuquerque Center
05:40PM 34.5967 -106.0644 306° West 442 509 36,000  Level Albuquerque Center
05:41PM 34.6669 -106.1819 305° West 442 509 36,000  Level Albuquerque Center
05:42PM 34.7347 -106.2997 306° West 435 501 36,000  Level Albuquerque Center
05:43PM 34.8044 -106.4150 305° West 435 501 36,000  Level Albuquerque Center
05:44PM 34.8700 -106.5308 307° West 428 493 36,000  Level Albuquerque Center
05:45PM 34.9458 -106.6517 304° West 433 498 36,000  Level Albuquerque Center
05:46PM 35.0114 -106.7703 294° West 433 498 36,000  Level Albuquerque Center
05:47PM 35.0556 -106.8892 286° West 427 491 36,000  Level Albuquerque Center
05:48PM 35.0917 -107.0439 285° West 433 498 36,000  Level Albuquerque Center
05:49PM 35.1211 -107.1808 284° West 433 498 36,000  Level Albuquerque Center
05:50PM 35.1506 -107.3206 285° West 428 493 36,000  Level Albuquerque Center
05:51PM 35.1775 -107.4475 286° West 428 493 36,000 -60 Level Albuquerque Center
05:52PM 35.2128 -107.6003 283° West 428 493 35,900  Descending Albuquerque Center
05:53PM 35.2397 -107.7400 285° West 428 493 36,000  Climbing Albuquerque Center
05:54PM 35.2703 -107.8828 284° West 428 493 36,000  Level Albuquerque Center
05:55PM 35.2969 -108.0103 285° West 430 495 36,000  Level Albuquerque Center
05:56PM 35.3314 -108.1633 284° West 430 495 36,000  Level Albuquerque Center
05:57PM 35.3594 -108.3061 285° West 430 495 36,000  Level Albuquerque Center
05:58PM 35.3897 -108.4467 284° West 430 495 36,000  Level Albuquerque Center
05:59PM 35.4156 -108.5744 283° West 430 495 36,000  Level Albuquerque Center
06:00PM 35.4453 -108.7303 283° West 430 495 36,000  Level Albuquerque Center
06:01PM 35.4728 -108.8736 275° West 435 501 36,000  Level Albuquerque Center
06:02PM 35.4833 -109.0167 273° West 430 495 36,000  Level Albuquerque Center
06:03PM 35.4897 -109.1494 273° West 425 489 36,000  Level Albuquerque Center
06:04PM 35.4958 -109.2925 273° West 425 489 36,000  Level Albuquerque Center
06:05PM 35.5036 -109.4533 274° West 425 489 36,000  Level Albuquerque Center
06:06PM 35.5114 -109.5992 273° West 425 489 36,000  Level Albuquerque Center
06:07PM 35.5172 -109.7294 273° West 425 489 36,000  Level Albuquerque Center
06:08PM 35.5228 -109.8725 273° West 425 489 36,000  Level Albuquerque Center
06:09PM 35.5297 -110.0308 273° West 425 489 36,000  Level Albuquerque Center
06:10PM 35.5367 -110.1742 271° West 425 489 36,000  Level Albuquerque Center
06:11PM 35.5394 -110.3197 274° West 425 489 36,000  Level Albuquerque Center
06:12PM 35.5467 -110.4503 272° West 425 489 36,000  Level Albuquerque Center
06:13PM 35.5508 -110.6111 274° West 425 489 36,000 -240 Level Albuquerque Center
06:14PM 35.5594 -110.7544 272° West 425 489 35,600 -1,560 Descending Albuquerque Center
06:15PM 35.5636 -110.8978 272° West 420 483 33,000 -2,640 Descending Albuquerque Center
06:16PM 35.5678 -111.0306 272° West 427 491 30,400 -1,500 Descending Albuquerque Center
06:17PM 35.5731 -111.1944 271° West 427 491 30,000 -120 Descending Albuquerque Center
06:19PM 35.5794 -111.5397 273° West 431 496 30,000  Level Los Angeles Center
06:20PM 35.5847 -111.6850 272° West 431 496 30,000  Level Los Angeles Center
06:21PM 35.5878 -111.8306 273° West 431 496 30,000  Level Los Angeles Center
06:22PM 35.5928 -111.9733 272° West 431 496 30,000  Level Los Angeles Center
06:23PM 35.5978 -112.1186 272° West 431 496 30,000  Level Los Angeles Center
06:24PM 35.6019 -112.2514 271° West 426 490 30,000  Level Los Angeles Center
06:25PM 35.6044 -112.3967 272° West 426 490 30,000  Level Los Angeles Center
06:26PM 35.6086 -112.5397 270° West 426 490 30,000 -240 Level Los Angeles Center
06:27PM 35.6089 -112.6956 253° West 416 479 29,600 -900 Descending Los Angeles Center
06:28PM 35.5808 -112.8089 263° West 409 471 28,300 -1,800 Descending Los Angeles Center
06:29PM 35.5694 -112.9294 277° West 386 444 26,000 -2,100 Descending Los Angeles Center
06:30PM 35.5831 -113.0592 276° West 381 438 24,200 -1,380 Descending Los Angeles Center
06:31PM 35.5947 -113.1864 274° West 381 438 23,300 -960 Descending Los Angeles Center
06:32PM 35.6017 -113.3089 277° West 381 438 22,300 -1,080 Descending Los Angeles Center
06:33PM 35.6153 -113.4439 276° West 371 427 21,200 -1,020 Descending Los Angeles Center
06:34PM 35.6261 -113.5661 280° West 365 420 20,300 -960 Descending Los Angeles Center
06:35PM 35.6433 -113.6881 281° West 365 420 19,300 -1,020 Descending Los Angeles Center
06:36PM 35.6622 -113.8053 279° West 365 420 18,300 -1,080 Descending Los Angeles Center
06:37PM 35.6767 -113.9172 280° West 365 420 17,200 -1,020 Descending Los Angeles Center
06:38PM 35.6933 -114.0344 279° West 349 402 16,300 -1,140 Descending Los Angeles Center
06:39PM 35.7078 -114.1467 281° West 349 402 15,000 -1,440 Descending Los Angeles Center
06:40PM 35.7239 -114.2461 296° West 334 384 13,500 -1,500 Descending Los Angeles Center
06:41PM 35.7564 -114.3272 302° West 326 375 12,400 -1,620 Descending Los Angeles Center
06:42PM 35.8081 -114.4283 303° West 300 345 10,600 -1,200 Descending Los Angeles Center
06:43PM 35.8553 -114.5197 301° West 346 398 10,000 -300 Descending Los Angeles Center
06:44PM 35.9067 -114.6264 304° West 357 411 10,100  Climbing Los Angeles Center
06:45PM 35.9600 -114.7256 303° West 341 392 10,000 -1,080 Descending Los Angeles Center
06:46PM 36.0089 -114.8169 300° West 294 338 7,900 -1,920 Descending Los Angeles Center
06:47PM 36.0472 -114.8986 300° West 298 343 5,800 -1,980 Descending Los Angeles Center